Cape Balder — V7KA5 — position and weather

sailwx.info

Track history (hours):
 
Tides and Currents Weather Stations Pressure Air Temp Water Temp Dewpoint Dewpoint Depression Visibility Wind Speed Wind Dir Waves Ship Positions

Cape Balder

Last reported at 2014-Nov-19 11:29 UTC. Time now 2014-Nov-21 20:42 UTC.
Position N 38°22' E 025°43'.

Length 274 m; draft 15.8 m.

Type: Ship. MMSI: 538005854.

Date/timePositionNaut miles runAvg speedWind from/ knotsBaromVisibWave heightAir tempDewpointWater temp
2014-Nov-19 11:29N 38°22' E 025°43'1211.1
2014-Nov-19 10:23N 38°10' E 025°44'911.2
2014-Nov-19 09:33N 38°00' E 025°44'2210.9
2014-Nov-19 07:31N 37°38' E 025°48'1414.5
2014-Nov-19 06:34N 37°25' E 025°54'1413.8
2014-Nov-19 05:33N 37°13' E 026°03'1413.8
2014-Nov-19 04:33N 37°01' E 026°10'1413.9
2014-Nov-19 03:33N 36°50' E 026°21'1414.2
2014-Nov-19 02:34N 36°40' E 026°33'1814.0
2014-Nov-19 01:14N 36°26' E 026°48'1013.8
2014-Nov-19 00:33N 36°19' E 026°56'1613.7
2014-Nov-18 23:23N 36°09' E 027°11'  
Track history (hours):
 
Tides and Currents Weather Stations Pressure Air Temp Water Temp Dewpoint Dewpoint Depression Visibility Wind Speed Wind Dir Waves Ship Positions

Cape Balder

Last reported at 2014-Nov-19 11:29 UTC. Time now 2014-Nov-21 20:42 UTC.
Position N 38°22' E 025°43'.

Length 274 m; draft 15.8 m.

Type: Ship. MMSI: 538005854.

Date/timePositionNaut miles runAvg speedWind from/ knotsBaromVisibWave heightAir tempDewpointWater temp
2014-Nov-19 11:29N 38°22' E 025°43'1211.1
2014-Nov-19 10:23N 38°10' E 025°44'911.2
2014-Nov-19 09:33N 38°00' E 025°44'2210.9
2014-Nov-19 07:31N 37°38' E 025°48'1414.5
2014-Nov-19 06:34N 37°25' E 025°54'1413.8
2014-Nov-19 05:33N 37°13' E 026°03'1413.8
2014-Nov-19 04:33N 37°01' E 026°10'1413.9
2014-Nov-19 03:33N 36°50' E 026°21'1414.2
2014-Nov-19 02:34N 36°40' E 026°33'1814.0
2014-Nov-19 01:14N 36°26' E 026°48'1013.8
2014-Nov-19 00:33N 36°19' E 026°56'1613.7
2014-Nov-18 23:23N 36°09' E 027°11'  

Dump ship's entire track history